Time;durP1;ratioP1;P1;durP2;ratioP2;P2;SDS_P1;SDS_P2;PMS_P1;PMS_P2;Temp;Humidity;BMP_temperature;BMP_pressure;BME280_temperature;BME280_humidity;BME280_pressure;Samples;Min_cycle;Max_cycle;Signal;HPM_P1;HPM_P2
2022/04/19 00:00:57;;;;;;;1.70;1.10;;;18.90;47.10;;;;;;4310348;33;19984;-70
2022/04/19 00:03:23;;;;;;;1.60;1.05;;;18.90;47.10;;;;;;4309481;33;20103;-70
2022/04/19 00:05:52;;;;;;;2.15;1.15;;;18.90;47.10;;;;;;4297260;33;20100;-70
2022/04/19 00:08:18;;;;;;;1.42;1.10;;;18.90;47.10;;;;;;4309630;33;20065;-70
2022/04/19 00:10:44;;;;;;;2.13;1.30;;;18.90;47.10;;;;;;4309847;33;20085;-70
2022/04/19 00:13:12;;;;;;;2.13;1.13;;;18.90;47.10;;;;;;4309892;33;20248;-70
2022/04/19 00:15:41;;;;;;;1.85;1.23;;;18.90;47.10;;;;;;4309789;33;20069;-70
2022/04/19 00:18:08;;;;;;;1.90;1.20;;;18.90;47.10;;;;;;4296755;33;20101;-70
2022/04/19 00:20:35;;;;;;;1.70;1.30;;;18.90;47.10;;;;;;4309733;33;20093;-71
2022/04/19 00:23:03;;;;;;;1.85;1.10;;;18.90;47.10;;;;;;4309243;33;20101;-70
2022/04/19 00:25:29;;;;;;;2.03;1.08;;;18.90;47.10;;;;;;4309694;33;20427;-71
2022/04/19 00:27:55;;;;;;;2.22;1.13;;;18.90;47.10;;;;;;4308882;33;20131;-70
2022/04/19 00:30:20;;;;;;;1.52;0.98;;;18.80;47.00;;;;;;4309843;33;20092;-70
2022/04/19 00:32:46;;;;;;;1.67;1.10;;;18.90;47.10;;;;;;4309514;33;20069;-70
2022/04/19 00:35:12;;;;;;;2.10;1.00;;;18.90;47.10;;;;;;4308970;33;20132;-70
2022/04/19 00:37:39;;;;;;;2.05;1.02;;;18.90;47.10;;;;;;4309688;33;20411;-70
2022/04/19 00:40:08;;;;;;;1.40;0.85;;;18.80;47.00;;;;;;4308883;33;20482;-71
2022/04/19 00:42:35;;;;;;;1.90;1.40;;;18.90;47.10;;;;;;4308624;33;20506;-70
2022/04/19 00:45:04;;;;;;;1.95;1.10;;;18.80;47.00;;;;;;4308863;33;20092;-70
2022/04/19 00:47:34;;;;;;;1.13;1.00;;;18.80;47.00;;;;;;4307738;33;20231;-70
2022/04/19 00:50:04;;;;;;;1.38;1.15;;;18.80;47.00;;;;;;4308790;33;20143;-70
2022/04/19 00:52:31;;;;;;;1.98;0.98;;;18.80;47.00;;;;;;4308597;33;20092;-70
2022/04/19 00:54:59;;;;;;;1.85;1.02;;;18.80;47.10;;;;;;4308713;33;20732;-70
2022/04/19 00:57:26;;;;;;;2.33;1.30;;;18.80;47.10;;;;;;4308832;33;20694;-70
2022/04/19 00:59:56;;;;;;;2.10;1.30;;;18.80;47.10;;;;;;4310886;33;20216;-70
2022/04/19 01:02:24;;;;;;;1.63;1.00;;;18.80;47.10;;;;;;4308554;33;20407;-70
2022/04/19 01:04:50;;;;;;;2.05;1.13;;;18.80;47.00;;;;;;4320002;33;20599;-71
2022/04/19 01:07:20;;;;;;;2.08;1.00;;;18.80;47.00;;;;;;4325683;33;20091;-70
2022/04/19 01:09:47;;;;;;;1.83;1.08;;;18.80;47.00;;;;;;4326029;33;20108;-70
2022/04/19 01:15:09;;;;;;;1.75;1.20;;;18.70;47.00;;;;;;4322334;33;20513;-70
2022/04/19 01:17:40;;;;;;;1.17;0.90;;;18.70;47.00;;;;;;4316152;33;20157;-70
2022/04/19 01:20:12;;;;;;;1.33;1.00;;;18.70;47.00;;;;;;4298429;33;20218;-70
2022/04/19 01:22:42;;;;;;;1.42;0.88;;;18.70;47.00;;;;;;4311023;33;20453;-70
2022/04/19 01:25:12;;;;;;;1.80;0.93;;;18.70;47.10;;;;;;4311393;33;20107;-70
2022/04/19 01:27:38;;;;;;;1.20;1.00;;;18.70;47.00;;;;;;4311276;33;20077;-70
2022/04/19 01:30:08;;;;;;;1.65;1.30;;;18.70;47.00;;;;;;4311578;33;20073;-70
2022/04/19 01:32:35;;;;;;;1.30;0.98;;;18.70;47.00;;;;;;4297716;33;20109;-70
2022/04/19 01:35:18;;;;;;;1.40;0.85;;;18.70;47.00;;;;;;4311692;33;20084;-70
2022/04/19 01:37:47;;;;;;;1.42;0.75;;;18.70;47.00;;;;;;4311998;33;20095;-70
2022/04/19 01:40:16;;;;;;;2.45;1.38;;;18.70;47.00;;;;;;4311950;33;20069;-70
2022/04/19 01:42:58;;;;;;;2.08;1.02;;;18.70;47.00;;;;;;4311097;33;20561;-71
2022/04/19 01:45:27;;;;;;;1.42;1.00;;;18.70;47.00;;;;;;4311836;33;20104;-71
2022/04/19 01:47:54;;;;;;;1.42;0.95;;;18.70;47.00;;;;;;4311759;33;20427;-70
2022/04/19 01:50:21;;;;;;;2.50;1.20;;;18.70;47.00;;;;;;4311456;33;20077;-70
2022/04/19 01:52:48;;;;;;;1.85;1.20;;;18.70;47.10;;;;;;4311394;33;20292;-70
2022/04/19 01:55:16;;;;;;;1.88;0.98;;;18.70;47.10;;;;;;4310154;33;20109;-70
2022/04/19 01:57:49;;;;;;;1.10;1.00;;;18.60;47.00;;;;;;4310633;33;20161;-70
2022/04/19 02:00:16;;;;;;;1.35;1.10;;;18.70;47.00;;;;;;4311605;33;20077;-70
2022/04/19 02:02:44;;;;;;;1.48;0.93;;;18.70;47.10;;;;;;4311584;33;20515;-70
2022/04/19 02:05:11;;;;;;;1.83;1.13;;;18.60;47.00;;;;;;4311189;33;20619;-70
2022/04/19 02:07:44;;;;;;;1.23;0.90;;;18.70;47.10;;;;;;4311235;33;20499;-70
2022/04/19 02:10:13;;;;;;;1.45;0.80;;;18.60;47.10;;;;;;4311751;33;20101;-69
2022/04/19 02:12:39;;;;;;;1.73;1.08;;;18.60;47.10;;;;;;4311583;33;20073;-70
2022/04/19 02:15:07;;;;;;;2.55;1.20;;;18.60;47.10;;;;;;4310577;33;20135;-70
2022/04/19 02:17:33;;;;;;;1.83;1.15;;;18.60;47.10;;;;;;4311321;33;20080;-70
2022/04/19 02:20:05;;;;;;;0.80;0.63;;;18.60;47.00;;;;;;4311404;33;20235;-70
2022/04/19 02:22:32;;;;;;;1.30;1.00;;;18.60;47.00;;;;;;4311355;33;20081;-70
2022/04/19 02:24:59;;;;;;;1.25;1.05;;;18.60;47.10;;;;;;4311251;33;20069;-70
2022/04/19 02:27:30;;;;;;;1.50;1.10;;;18.60;47.10;;;;;;4311253;33;20085;-70
2022/04/19 02:29:56;;;;;;;1.50;1.00;;;18.60;47.10;;;;;;4311415;33;20125;-70
2022/04/19 02:32:24;;;;;;;2.05;1.00;;;18.50;47.00;;;;;;4311173;33;20065;-70
2022/04/19 02:34:51;;;;;;;1.73;1.05;;;18.50;47.00;;;;;;4310659;33;20236;-70
2022/04/19 02:37:17;;;;;;;3.38;1.20;;;18.60;47.00;;;;;;4297769;33;20172;-70
2022/04/19 02:39:46;;;;;;;1.23;0.98;;;18.50;47.00;;;;;;4310876;33;20504;-70
2022/04/19 02:42:12;;;;;;;2.50;1.05;;;18.50;47.00;;;;;;4311006;33;20096;-70
2022/04/19 02:44:38;;;;;;;1.45;0.90;;;18.50;47.00;;;;;;4310711;33;20085;-70
2022/04/19 02:47:04;;;;;;;1.00;0.80;;;18.50;47.00;;;;;;4301712;33;20128;-70
2022/04/19 02:49:30;;;;;;;1.60;0.98;;;18.50;47.00;;;;;;4297280;33;20084;-70
2022/04/19 02:51:56;;;;;;;1.63;1.08;;;18.50;47.00;;;;;;4310721;33;20507;-69
2022/04/19 02:54:22;;;;;;;1.13;0.80;;;18.50;47.00;;;;;;4309900;33;20099;-70
2022/04/19 02:56:48;;;;;;;1.27;0.95;;;18.50;47.00;;;;;;4297712;33;20081;-70
2022/04/19 02:59:15;;;;;;;1.50;1.10;;;18.50;47.00;;;;;;4297548;33;20643;-69
2022/04/19 03:01:42;;;;;;;1.55;0.90;;;18.50;47.00;;;;;;4297605;33;20170;-70
2022/04/19 03:04:07;;;;;;;1.63;1.13;;;18.50;47.00;;;;;;4310235;33;20081;-70
2022/04/19 03:06:33;;;;;;;1.63;1.08;;;18.50;47.00;;;;;;4310702;33;20485;-70
2022/04/19 03:08:59;;;;;;;2.08;1.17;;;18.50;47.10;;;;;;4310558;33;20385;-70
2022/04/19 03:11:25;;;;;;;1.95;0.90;;;18.50;47.10;;;;;;4310409;33;20551;-69
2022/04/19 03:13:51;;;;;;;1.20;0.90;;;18.50;47.10;;;;;;4310592;33;20096;-70
2022/04/19 03:16:17;;;;;;;1.30;0.70;;;18.50;47.10;;;;;;4310554;33;20403;-70
2022/04/19 03:18:43;;;;;;;1.67;1.15;;;18.40;47.10;;;;;;4310483;33;20547;-70
2022/04/19 03:21:13;;;;;;;1.67;1.02;;;18.40;47.10;;;;;;4310244;33;20554;-69
2022/04/19 03:29:14;;;;;;;1.58;0.80;;;18.40;47.10;;;;;;4299128;33;20097;-70
2022/04/19 03:31:40;;;;;;;2.38;1.00;;;18.40;47.10;;;;;;4310422;33;20104;-70
2022/04/19 03:34:06;;;;;;;1.60;1.00;;;18.40;47.10;;;;;;4310035;33;20204;-70
2022/04/19 03:36:33;;;;;;;1.13;0.80;;;18.40;47.10;;;;;;4310421;33;20120;-69
2022/04/19 03:38:59;;;;;;;1.80;1.00;;;18.40;47.10;;;;;;4310342;33;20144;-69
2022/04/19 03:41:25;;;;;;;1.10;0.82;;;18.40;47.10;;;;;;4309922;33;20642;-69
2022/04/19 03:43:51;;;;;;;1.08;0.85;;;18.40;47.10;;;;;;4309931;33;20108;-70
2022/04/19 03:46:18;;;;;;;1.85;0.90;;;18.40;47.20;;;;;;4309961;33;20081;-70
2022/04/19 03:48:44;;;;;;;1.00;0.80;;;18.30;47.10;;;;;;4310352;33;20093;-70
2022/04/19 03:51:10;;;;;;;1.30;1.00;;;18.40;47.20;;;;;;4310169;33;20073;-69
2022/04/19 03:53:35;;;;;;;2.30;1.10;;;18.30;47.20;;;;;;4309881;33;20490;-69
2022/04/19 03:56:03;;;;;;;0.90;0.80;;;18.40;47.20;;;;;;4296933;33;20077;-70
2022/04/19 03:58:33;;;;;;;1.75;1.08;;;18.30;47.20;;;;;;4310118;33;20069;-69
2022/04/19 04:01:00;;;;;;;1.25;0.90;;;18.30;47.20;;;;;;4310398;33;20088;-69
2022/04/19 04:03:27;;;;;;;0.70;0.68;;;18.30;47.20;;;;;;4309640;33;20318;-70
2022/04/19 04:05:56;;;;;;;1.00;0.77;;;18.30;47.20;;;;;;4309859;33;20089;-70
2022/04/19 04:08:22;;;;;;;1.17;0.80;;;18.30;47.20;;;;;;4297052;33;20242;-70
2022/04/19 04:10:48;;;;;;;1.60;0.98;;;18.30;47.20;;;;;;4309671;33;20219;-70
2022/04/19 04:13:14;;;;;;;1.20;0.98;;;18.30;47.20;;;;;;4309033;33;20083;-69
2022/04/19 04:15:40;;;;;;;1.20;0.98;;;18.30;47.20;;;;;;4310154;33;20093;-70
2022/04/19 04:18:08;;;;;;;1.08;0.98;;;18.30;47.20;;;;;;4296935;33;20139;-70
2022/04/19 04:20:34;;;;;;;1.20;0.90;;;18.30;47.30;;;;;;4309689;33;20085;-70
2022/04/19 04:23:00;;;;;;;1.20;0.90;;;18.30;47.30;;;;;;4309868;33;20084;-70
2022/04/19 04:25:26;;;;;;;2.28;0.90;;;18.30;47.30;;;;;;4309476;33;20117;-69
2022/04/19 04:27:52;;;;;;;0.85;0.80;;;18.30;47.30;;;;;;4309902;33;20153;-69
2022/04/19 04:30:18;;;;;;;0.88;0.77;;;18.30;47.30;;;;;;4296735;33;20077;-71
2022/04/19 04:32:44;;;;;;;1.15;0.80;;;18.30;47.30;;;;;;4310031;33;20081;-70
2022/04/19 04:35:10;;;;;;;1.25;0.90;;;18.30;47.30;;;;;;4296542;33;20235;-69
2022/04/19 04:37:36;;;;;;;1.20;0.90;;;18.20;47.20;;;;;;4310040;33;20121;-70
2022/04/19 04:40:03;;;;;;;1.65;1.05;;;18.30;47.30;;;;;;4312387;33;20545;-69
2022/04/19 04:42:29;;;;;;;1.73;0.93;;;18.20;47.30;;;;;;4312713;33;20077;-70
2022/04/19 04:44:54;;;;;;;1.40;1.05;;;18.20;47.30;;;;;;4312823;33;20181;-70
2022/04/19 04:50:05;;;;;;;1.13;1.00;;;18.20;47.30;;;;;;4312385;33;20100;-70
2022/04/19 04:52:31;;;;;;;1.35;0.75;;;18.20;47.30;;;;;;4312491;33;20100;-70
2022/04/19 04:54:56;;;;;;;0.88;0.80;;;18.20;47.30;;;;;;4312466;33;20161;-70
2022/04/19 04:57:22;;;;;;;0.93;0.80;;;18.20;47.30;;;;;;4312556;33;20053;-70
2022/04/19 04:59:48;;;;;;;1.10;0.73;;;18.20;47.30;;;;;;4326594;33;20136;-70
2022/04/19 05:02:15;;;;;;;1.40;0.98;;;18.20;47.30;;;;;;4315179;33;20188;-69
2022/04/19 05:04:41;;;;;;;0.85;0.80;;;18.20;48.30;;;;;;4312064;33;20566;-69
2022/04/19 05:07:07;;;;;;;2.15;0.90;;;18.10;47.30;;;;;;4299049;33;20085;-69
2022/04/19 05:09:33;;;;;;;1.15;0.80;;;18.20;47.40;;;;;;4312375;33;20096;-69
2022/04/19 05:11:58;;;;;;;1.58;1.08;;;18.10;47.30;;;;;;4312251;33;20087;-70
2022/04/19 05:14:24;;;;;;;1.02;0.80;;;18.10;47.30;;;;;;4298878;33;20523;-69
2022/04/19 05:16:50;;;;;;;1.35;0.85;;;18.20;47.40;;;;;;4312283;33;20092;-69
2022/04/19 05:19:16;;;;;;;1.25;0.73;;;18.10;47.40;;;;;;4311885;33;20128;-71
2022/04/19 05:21:42;;;;;;;3.42;1.35;;;18.10;47.40;;;;;;4311469;33;20168;-71
2022/04/19 05:24:09;;;;;;;4.65;2.13;;;18.10;47.20;;;;;;4310939;33;20085;-72
2022/04/19 05:26:35;;;;;;;3.88;2.55;;;18.10;46.80;;;;;;4312767;33;20101;-71
2022/04/19 05:29:01;;;;;;;3.53;2.08;;;18.10;46.50;;;;;;4310871;33;20088;-71
2022/04/19 05:31:27;;;;;;;3.47;2.33;;;18.10;46.40;;;;;;4310276;33;20512;-71
2022/04/19 05:33:53;;;;;;;4.28;2.00;;;18.00;46.50;;;;;;4310759;33;20140;-71
2022/04/19 05:36:19;;;;;;;2.78;1.70;;;18.00;46.90;;;;;;4307833;33;20089;-71
2022/04/19 05:38:45;;;;;;;3.83;2.17;;;18.00;47.10;;;;;;4310855;33;20112;-71
2022/04/19 05:41:11;;;;;;;7.15;1.90;;;18.00;47.20;;;;;;4298103;33;20500;-71
2022/04/19 05:43:37;;;;;;;2.55;1.45;;;18.00;47.20;;;;;;4311101;33;20091;-71
2022/04/19 05:46:03;;;;;;;2.88;1.83;;;18.00;47.40;;;;;;4311111;33;20072;-71
2022/04/19 05:48:29;;;;;;;1.83;1.40;;;18.00;47.40;;;;;;4311284;33;20096;-72
2022/04/19 05:50:55;;;;;;;5.25;1.58;;;18.00;47.40;;;;;;4310886;33;20081;-72
2022/04/19 05:53:21;;;;;;;3.50;1.30;;;18.00;47.50;;;;;;4311418;33;20077;-72
2022/04/19 05:55:47;;;;;;;2.75;1.45;;;18.00;47.50;;;;;;4311412;33;20513;-72
2022/04/19 05:58:13;;;;;;;3.75;1.27;;;18.10;47.60;;;;;;4298480;33;20416;-72
2022/04/19 06:00:40;;;;;;;3.22;1.42;;;18.10;47.60;;;;;;4312442;33;20246;-72
2022/04/19 06:05:51;;;;;;;4.25;1.42;;;18.10;47.80;;;;;;4325855;33;20499;-72
2022/04/19 06:08:16;;;;;;;2.13;1.40;;;18.10;47.80;;;;;;4324652;33;20107;-72
2022/04/19 06:10:42;;;;;;;1.67;1.25;;;18.10;47.90;;;;;;4325812;33;20162;-71
2022/04/19 06:13:08;;;;;;;1.92;1.40;;;18.10;48.00;;;;;;4325937;33;20072;-71
2022/04/19 06:15:37;;;;;;;3.75;1.48;;;18.10;48.10;;;;;;4325868;33;20089;-72
2022/04/19 06:18:04;;;;;;;2.15;1.30;;;18.10;48.30;;;;;;4324725;33;20077;-71
2022/04/19 06:20:29;;;;;;;2.15;1.40;;;18.10;48.60;;;;;;4325645;33;20089;-71
2022/04/19 06:22:55;;;;;;;3.72;1.13;;;18.20;48.80;;;;;;4325822;33;20065;-71
2022/04/19 06:25:21;;;;;;;3.15;1.30;;;18.20;49.00;;;;;;4325855;33;20135;-71
2022/04/19 06:27:47;;;;;;;4.88;1.70;;;18.20;49.10;;;;;;4312397;33;20086;-72
2022/04/19 06:30:14;;;;;;;3.72;1.27;;;18.20;49.20;;;;;;4311941;33;20077;-71
2022/04/19 06:32:41;;;;;;;3.95;1.55;;;18.20;49.30;;;;;;4323967;33;20215;-72
2022/04/19 06:35:08;;;;;;;5.03;1.45;;;18.20;49.30;;;;;;4322027;33;20163;-71
2022/04/19 06:37:34;;;;;;;3.83;1.73;;;18.20;49.40;;;;;;4325533;33;20556;-70
2022/04/19 06:40:01;;;;;;;5.05;1.90;;;18.20;49.50;;;;;;4324289;33;20088;-72
2022/04/19 06:42:29;;;;;;;6.15;1.67;;;18.30;49.80;;;;;;4325480;33;20396;-72
2022/04/19 06:44:55;;;;;;;3.83;1.55;;;18.30;49.90;;;;;;4325062;33;20073;-70
2022/04/19 06:47:21;;;;;;;3.55;1.80;;;18.30;50.10;;;;;;4324727;33;20073;-71
2022/04/19 06:49:47;;;;;;;7.53;2.35;;;18.30;50.10;;;;;;4323526;33;20189;-71
2022/04/19 06:52:12;;;;;;;4.90;1.92;;;18.30;49.80;;;;;;4325362;33;20214;-70
2022/04/19 06:54:38;;;;;;;5.93;2.53;;;18.30;49.60;;;;;;4325479;33;20066;-70
2022/04/19 06:57:05;;;;;;;5.78;2.63;;;18.40;49.50;;;;;;4311498;33;20419;-70
2022/04/19 06:59:30;;;;;;;8.80;3.00;;;18.40;49.40;;;;;;4325215;33;20095;-71
2022/04/19 07:01:56;;;;;;;5.05;2.47;;;18.40;49.20;;;;;;4324602;33;20109;-71
2022/04/19 07:04:23;;;;;;;5.00;2.50;;;18.40;49.10;;;;;;4324493;33;20080;-71
2022/04/19 07:06:49;;;;;;;5.50;2.63;;;18.40;49.10;;;;;;4324888;33;20229;-70
2022/04/19 07:09:15;;;;;;;7.82;3.00;;;18.50;49.10;;;;;;4319212;33;20077;-71
2022/04/19 07:11:41;;;;;;;7.47;2.60;;;18.60;49.00;;;;;;4296544;33;20178;-70
2022/04/19 07:14:07;;;;;;;6.63;2.60;;;18.50;49.00;;;;;;4313698;33;20097;-72
2022/04/19 07:16:33;;;;;;;5.95;2.55;;;18.60;49.10;;;;;;4320483;33;20095;-71
2022/04/19 07:18:59;;;;;;;6.07;2.80;;;18.60;49.00;;;;;;4324175;33;20435;-72
2022/04/19 07:26:54;;;;;;;3.72;2.20;;;18.70;48.80;;;;;;4318499;33;20073;-71
2022/04/19 07:29:20;;;;;;;6.50;2.10;;;18.70;48.70;;;;;;4323664;33;20089;-70
2022/04/19 07:31:47;;;;;;;4.00;2.47;;;18.70;48.70;;;;;;4324482;33;20216;-71
2022/04/19 07:34:16;;;;;;;8.68;2.53;;;18.70;48.60;;;;;;4322582;33;20236;-70
2022/04/19 07:36:43;;;;;;;7.55;2.17;;;18.80;48.40;;;;;;4301367;33;20279;-69
2022/04/19 07:39:10;;;;;;;10.25;3.03;;;18.80;48.70;;;;;;4320215;33;20152;-70
2022/04/19 07:41:37;;;;;;;4.55;2.28;;;18.80;48.80;;;;;;4309101;33;20143;-69
2022/04/19 07:44:10;;;;;;;4.13;2.10;;;18.90;48.90;;;;;;4308881;33;20108;-70
2022/04/19 07:46:36;;;;;;;5.63;2.17;;;18.90;48.80;;;;;;4309800;33;20089;-71
2022/04/19 07:49:03;;;;;;;3.95;1.90;;;19.00;48.60;;;;;;4309500;33;20134;-70
2022/04/19 07:51:29;;;;;;;4.35;2.13;;;19.00;48.30;;;;;;4308293;33;20165;-70
2022/04/19 07:53:55;;;;;;;3.53;1.77;;;19.00;48.10;;;;;;4309426;33;20097;-70
2022/04/19 07:56:22;;;;;;;5.95;2.20;;;19.00;47.80;;;;;;4309423;33;20271;-71
2022/04/19 07:58:49;;;;;;;4.13;1.88;;;19.10;47.60;;;;;;4309522;33;20235;-70
2022/04/19 08:01:16;;;;;;;6.88;2.10;;;19.10;47.30;;;;;;4309366;33;20484;-71
2022/04/19 08:03:42;;;;;;;3.53;1.98;;;19.10;47.20;;;;;;4309209;33;20224;-71
2022/04/19 08:06:09;;;;;;;2.83;1.80;;;19.10;47.00;;;;;;4296663;33;20220;-71
2022/04/19 08:08:36;;;;;;;2.50;1.42;;;19.10;47.00;;;;;;4309180;33;20229;-71
2022/04/19 08:11:03;;;;;;;4.20;1.80;;;19.10;47.70;;;;;;4309559;33;20100;-71
2022/04/19 08:13:29;;;;;;;3.20;1.60;;;19.10;46.60;;;;;;4309016;33;20093;-71
2022/04/19 08:15:55;;;;;;;2.78;1.70;;;19.10;46.40;;;;;;4296374;33;20096;-71
2022/04/19 08:18:21;;;;;;;3.05;1.50;;;19.10;46.10;;;;;;4309449;33;20065;-71
2022/04/19 08:20:47;;;;;;;2.78;1.50;;;19.20;46.00;;;;;;4308358;33;20088;-70
2022/04/19 08:23:13;;;;;;;4.63;1.90;;;19.20;45.90;;;;;;4295912;33;20123;-71
2022/04/19 08:25:40;;;;;;;3.75;1.25;;;19.20;45.90;;;;;;4296415;33;20085;-70
2022/04/19 08:28:07;;;;;;;1.70;1.05;;;19.20;45.40;;;;;;4309253;33;20117;-70
2022/04/19 08:30:33;;;;;;;1.77;0.90;;;19.20;44.60;;;;;;4308566;33;20161;-70
2022/04/19 08:32:59;;;;;;;1.52;0.95;;;19.20;44.00;;;;;;4308884;33;20085;-71
2022/04/19 08:35:25;;;;;;;3.45;0.90;;;19.20;43.70;;;;;;4308333;33;20101;-71
2022/04/19 08:37:52;;;;;;;1.40;1.00;;;19.30;43.30;;;;;;4309327;33;20073;-71
2022/04/19 08:40:18;;;;;;;0.90;0.80;;;19.20;42.70;;;;;;4310958;33;20085;-71
2022/04/19 08:42:45;;;;;;;1.58;0.65;;;19.20;42.40;;;;;;4308349;33;20081;-70
2022/04/19 08:45:14;;;;;;;1.20;0.88;;;19.20;42.80;;;;;;4308718;33;20078;-70
2022/04/19 08:47:45;;;;;;;2.65;1.00;;;19.20;43.20;;;;;;4308500;33;20164;-71
2022/04/19 08:50:19;;;;;;;2.88;0.60;;;19.30;43.40;;;;;;4295295;33;20156;-70
2022/04/19 08:52:46;;;;;;;1.00;0.60;;;19.30;43.70;;;;;;4312117;33;20081;-70
2022/04/19 08:57:57;;;;;;;1.77;1.00;;;19.30;44.20;;;;;;4309121;33;20126;-70
2022/04/19 09:00:24;;;;;;;10.38;0.82;;;19.30;44.10;;;;;;4310772;33;20091;-70
2022/04/19 09:02:51;;;;;;;2.40;1.02;;;19.30;44.00;;;;;;4310338;33;20093;-70
2022/04/19 09:05:22;;;;;;;1.40;0.75;;;19.30;44.40;;;;;;4307117;33;20113;-71
2022/04/19 09:07:50;;;;;;;2.13;0.70;;;19.40;44.40;;;;;;4309572;33;20161;-70
2022/04/19 09:10:25;;;;;;;1.75;1.00;;;19.40;44.70;;;;;;4295351;33;20368;-70
2022/04/19 09:12:57;;;;;;;1.30;0.90;;;19.40;44.70;;;;;;4295890;33;20146;-70
2022/04/19 09:15:23;;;;;;;2.42;0.80;;;19.40;45.10;;;;;;4308689;33;20165;-68
2022/04/19 09:17:50;;;;;;;0.95;0.80;;;19.50;45.10;;;;;;4309229;33;20102;-69
2022/04/19 09:20:20;;;;;;;1.23;0.82;;;19.50;44.90;;;;;;4309133;33;20128;-69
2022/04/19 09:22:48;;;;;;;1.30;0.90;;;19.50;44.60;;;;;;4310196;33;20582;-70
2022/04/19 09:25:24;;;;;;;2.25;1.20;;;19.50;44.60;;;;;;4310546;33;20202;-70
2022/04/19 09:27:51;;;;;;;3.50;1.30;;;19.50;44.70;;;;;;4299134;33;20107;-68
2022/04/19 09:30:22;;;;;;;2.95;1.33;;;19.50;45.10;;;;;;4325238;33;20120;-70
2022/04/19 09:33:08;;;;;;;4.40;1.85;;;19.60;45.70;;;;;;4320908;33;20077;-72
2022/04/19 09:35:45;;;;;;;5.13;1.70;;;19.60;45.10;;;;;;4312535;33;20077;-70
2022/04/19 09:38:12;;;;;;;2.40;1.55;;;19.60;45.00;;;;;;4321941;33;20156;-70
2022/04/19 09:40:45;;;;;;;2.90;1.73;;;19.60;45.10;;;;;;4311692;33;20224;-69
2022/04/19 09:43:17;;;;;;;2.10;1.80;;;19.60;44.70;;;;;;4310802;33;20081;-69
2022/04/19 09:45:55;;;;;;;2.33;1.90;;;19.60;44.50;;;;;;4313153;33;20284;-69
2022/04/19 09:48:37;;;;;;;2.28;1.85;;;19.60;44.40;;;;;;4310811;33;20235;-69
2022/04/19 09:51:07;;;;;;;3.15;1.95;;;19.60;44.30;;;;;;4324947;33;20204;-70
2022/04/19 09:53:44;;;;;;;2.42;1.90;;;19.60;44.30;;;;;;4325015;33;20419;-69
2022/04/19 09:56:23;;;;;;;2.75;1.70;;;19.60;44.30;;;;;;4311962;33;20093;-70
2022/04/19 09:58:53;;;;;;;4.25;2.20;;;19.60;44.30;;;;;;4311304;33;20099;-70
2022/04/19 10:09:34;;;;;;;3.00;1.90;;;19.70;43.90;;;;;;4296109;33;20069;-70
2022/04/19 10:12:02;;;;;;;3.83;1.98;;;19.70;43.80;;;;;;4296119;33;20084;-69
2022/04/19 10:14:30;;;;;;;3.65;2.30;;;19.70;43.60;;;;;;4296175;33;20520;-69
2022/04/19 10:16:58;;;;;;;6.32;2.47;;;19.70;43.60;;;;;;4295003;33;20235;-69
2022/04/19 10:19:24;;;;;;;3.45;2.20;;;19.70;43.60;;;;;;4291111;33;20497;-69
2022/04/19 10:21:52;;;;;;;3.40;2.00;;;19.70;43.50;;;;;;4291103;33;20069;-69
2022/04/19 10:24:18;;;;;;;2.58;1.85;;;19.70;43.30;;;;;;4294890;33;20081;-70
2022/04/19 10:26:48;;;;;;;2.97;2.08;;;19.80;43.30;;;;;;4283859;33;20073;-69
2022/04/19 10:29:29;;;;;;;3.28;2.03;;;19.80;43.20;;;;;;4281859;33;20074;-69
2022/04/19 10:32:07;;;;;;;6.07;2.05;;;19.80;43.10;;;;;;4286686;33;20143;-69
2022/04/19 10:34:35;;;;;;;2.85;2.20;;;19.80;43.00;;;;;;4286918;33;20078;-69
2022/04/19 10:37:15;;;;;;;3.63;2.13;;;19.80;43.00;;;;;;4280582;33;20596;-69
2022/04/19 10:40:06;;;;;;;5.60;2.25;;;19.80;42.90;;;;;;4283125;33;20085;-69
2022/04/19 10:42:38;;;;;;;2.85;2.10;;;19.80;42.80;;;;;;4285100;33;20082;-69
2022/04/19 10:45:10;;;;;;;2.03;1.83;;;19.90;42.90;;;;;;4293741;33;20093;-69
2022/04/19 10:47:59;;;;;;;6.25;2.13;;;19.80;42.70;;;;;;4293254;33;20397;-69
2022/04/19 10:50:51;;;;;;;1.92;1.60;;;19.90;42.90;;;;;;4292894;33;20644;-69
2022/04/19 10:53:17;;;;;;;6.97;2.00;;;19.90;42.60;;;;;;4291190;33;20495;-69
2022/04/19 10:56:02;;;;;;;2.97;2.08;;;19.90;42.80;;;;;;4295111;33;20113;-70
2022/04/19 10:58:40;;;;;;;6.65;2.30;;;19.90;43.60;;;;;;4295399;33;20093;-69
2022/04/19 11:01:06;;;;;;;4.22;2.08;;;19.90;42.80;;;;;;4294404;33;20735;-68
2022/04/19 11:03:39;;;;;;;4.45;1.77;;;19.90;43.70;;;;;;4286489;33;20088;-69
2022/04/19 11:06:31;;;;;;;3.13;2.00;;;19.90;42.70;;;;;;4280944;33;20134;-69
2022/04/19 11:09:23;;;;;;;3.70;1.80;;;19.90;42.40;;;;;;4293883;33;20157;-67
2022/04/19 11:11:51;;;;;;;3.90;1.83;;;19.90;42.80;;;;;;4282470;33;20086;-70
2022/04/19 11:14:22;;;;;;;2.38;1.98;;;19.90;43.30;;;;;;4281481;33;20118;-68
2022/04/19 11:16:51;;;;;;;3.45;1.90;;;19.90;43.40;;;;;;4281530;33;20085;-78
2022/04/19 11:19:23;;;;;;;6.28;2.88;;;19.80;43.50;;;;;;4281478;33;20197;-68
2022/04/19 11:21:52;;;;;;;3.28;1.67;;;19.80;43.80;;;;;;4279511;33;20121;-68
2022/04/19 11:24:56;;;;;;;4.82;1.90;;;19.70;43.90;;;;;;4281119;33;20089;-68
2022/04/19 11:27:23;;;;;;;7.35;2.00;;;19.70;44.10;;;;;;4281322;33;20170;-68
2022/04/19 11:29:51;;;;;;;2.75;1.98;;;19.70;44.20;;;;;;4280375;33;20141;-68
2022/04/19 11:32:24;;;;;;;1.60;1.42;;;19.60;44.30;;;;;;4281455;33;20117;-67
2022/04/19 11:34:57;;;;;;;2.83;1.85;;;19.60;44.50;;;;;;4281273;33;20642;-68
2022/04/19 11:37:24;;;;;;;4.55;1.60;;;19.60;44.50;;;;;;4281252;33;20509;-68
2022/04/19 11:48:09;;;;;;;1.90;1.42;;;19.50;44.80;;;;;;4280592;33;20223;-68
2022/04/19 11:50:36;;;;;;;2.67;1.70;;;19.50;44.90;;;;;;4280182;33;20090;-68
2022/04/19 11:53:02;;;;;;;3.50;1.60;;;19.50;45.00;;;;;;4281215;33;20094;-67
2022/04/19 11:55:28;;;;;;;1.83;1.48;;;19.50;45.10;;;;;;4280858;33;20100;-68
2022/04/19 11:58:07;;;;;;;1.90;1.60;;;19.50;45.20;;;;;;4281070;33;20078;-68
2022/04/19 12:00:34;;;;;;;2.47;1.60;;;19.50;45.20;;;;;;4281009;33;20517;-68
2022/04/19 12:03:04;;;;;;;3.10;1.50;;;19.40;45.30;;;;;;4280744;33;20578;-67
2022/04/19 12:05:30;;;;;;;2.67;1.38;;;19.40;45.30;;;;;;4280781;33;20099;-68
2022/04/19 12:07:57;;;;;;;2.38;1.50;;;19.40;45.40;;;;;;4280601;33;20440;-67
2022/04/19 12:10:24;;;;;;;2.08;1.30;;;19.40;45.40;;;;;;4280970;33;20142;-68
2022/04/19 12:12:51;;;;;;;2.47;1.42;;;19.40;45.40;;;;;;4281357;33;20117;-67
2022/04/19 12:15:40;;;;;;;2.22;1.27;;;19.40;45.50;;;;;;4281045;33;20247;-68
2022/04/19 12:18:07;;;;;;;2.50;1.42;;;19.40;45.50;;;;;;4280843;33;20102;-67
2022/04/19 12:20:45;;;;;;;2.10;1.30;;;19.40;45.60;;;;;;4280662;33;20093;-67
2022/04/19 12:23:18;;;;;;;1.30;1.20;;;19.40;45.60;;;;;;4280799;33;20512;-67
2022/04/19 12:26:00;;;;;;;1.75;1.20;;;19.40;45.70;;;;;;4268175;33;20073;-67
2022/04/19 12:28:43;;;;;;;2.38;1.30;;;19.40;45.70;;;;;;4280848;33;20235;-67
2022/04/19 12:31:32;;;;;;;1.42;1.20;;;19.40;45.70;;;;;;4280626;33;20108;-67
2022/04/19 12:33:59;;;;;;;1.90;1.27;;;19.40;45.70;;;;;;4280755;33;20107;-67
2022/04/19 12:36:26;;;;;;;2.28;1.25;;;19.40;45.70;;;;;;4279795;33;20218;-67
2022/04/19 12:39:04;;;;;;;3.05;1.52;;;19.40;45.70;;;;;;4280780;33;20097;-68
2022/04/19 12:41:44;;;;;;;1.77;1.23;;;19.40;45.70;;;;;;4280903;33;20137;-67
2022/04/19 12:44:14;;;;;;;1.95;1.08;;;19.40;45.70;;;;;;4280755;33;20093;-68
2022/04/19 12:46:43;;;;;;;1.40;1.30;;;19.40;45.70;;;;;;4280607;33;20416;-67
2022/04/19 12:49:23;;;;;;;2.67;1.40;;;19.40;45.70;;;;;;4280674;33;20424;-67
2022/04/19 12:52:07;;;;;;;1.60;1.00;;;19.40;45.70;;;;;;4280713;33;20497;-67
2022/04/19 12:54:38;;;;;;;2.50;1.13;;;19.40;45.70;;;;;;4280991;33;20143;-67
2022/04/19 12:57:17;;;;;;;1.30;1.00;;;19.40;45.70;;;;;;4279467;33;20195;-67
2022/04/19 12:59:44;;;;;;;1.88;1.00;;;19.40;45.60;;;;;;4282289;33;20069;-67
2022/04/19 13:02:14;;;;;;;1.92;1.17;;;19.40;45.70;;;;;;4282386;33;20504;-67
2022/04/19 13:04:41;;;;;;;2.35;1.40;;;19.40;45.70;;;;;;4283055;33;20211;-67
2022/04/19 13:12:36;;;;;;;2.45;1.13;;;19.40;45.60;;;;;;4283326;33;20151;-68
2022/04/19 13:15:05;;;;;;;3.10;1.00;;;19.50;45.60;;;;;;4283173;33;20074;-67
2022/04/19 13:17:37;;;;;;;2.00;1.15;;;19.40;45.60;;;;;;4283152;33;20303;-68
2022/04/19 13:20:04;;;;;;;1.60;1.00;;;19.50;45.50;;;;;;4283369;33;20085;-67
2022/04/19 13:22:30;;;;;;;1.58;0.90;;;19.50;45.50;;;;;;4282809;33;20105;-67
2022/04/19 13:24:57;;;;;;;1.50;1.00;;;19.50;45.60;;;;;;4283101;33;20593;-68
2022/04/19 13:27:33;;;;;;;3.00;0.90;;;19.50;45.70;;;;;;4281788;33;20115;-67
2022/04/19 13:30:00;;;;;;;1.63;1.00;;;19.50;45.70;;;;;;4282860;33;20098;-67
2022/04/19 13:32:26;;;;;;;2.33;1.05;;;19.50;45.80;;;;;;4281949;33;20416;-67
2022/04/19 13:34:52;;;;;;;1.88;1.10;;;19.50;45.80;;;;;;4282719;33;20078;-68
2022/04/19 13:38:23;;;;;;;1.15;0.85;;;19.50;45.80;;;;;;4282907;33;20227;-67
2022/04/19 13:40:04;;;;;;;1.02;0.90;;;19.50;45.90;;;;;;4282791;33;20536;-68